Shanghai Dawn — 3FMN2 — position and weather

sailwx.info

Track history (hours):
 
Tides and Currents Weather Stations Pressure Air Temp Water Temp Dewpoint Dewpoint Depression Visibility Wind Speed Wind Dir Waves Ship Positions

Shanghai Dawn

Last reported at 2017-Jul-03 15:06 UTC. Time now 2017-Aug-18 20:26 UTC.
Position N 01°15' E 104°07'.
Warning: this ship's position is 46 days out of date.

Length 246 m; draft 13.2 m.

Type: Tanker. MMSI: 356075000.

Date/timePositionNaut miles runAvg speedWind from/ knotsBaromVisibWave heightAir tempDewpointWater temp
2017-Jul-03 15:06N 01°15' E 104°07'212.3
2017-Jul-03 14:58N 01°15' E 104°06'1111.9
2017-Jul-03 14:00N 01°12' E 103°55'510.4
2017-Jul-03 13:30N 01°10' E 103°50'5 9.4
2017-Jul-03 13:00N 01°08' E 103°46'5 9.1
2017-Jul-03 12:30N 01°05' E 103°43'4 8.8
2017-Jul-03 12:00N 01°03' E 103°39'4 8.1
2017-Jul-03 11:30N 01°06' E 103°37'1 2.6
2017-Jul-03 11:00N 01°07' E 103°36'0 0.9
2017-Jul-03 10:30N 01°07' E 103°36'0 0.0
2017-Jul-03 09:58N 01°07' E 103°36'0 0.2
2017-Jul-03 09:30N 01°07' E 103°36'0 0.1
2017-Jul-03 09:00N 01°07' E 103°36'0 0.1
2017-Jul-03 08:30N 01°07' E 103°36'0 0.0
2017-Jul-03 07:59N 01°07' E 103°36'0 0.0
2017-Jul-03 07:19N 01°07' E 103°36'0 0.0
2017-Jul-03 06:54N 01°07' E 103°36'0 0.0
2017-Jul-03 06:30N 01°07' E 103°36'0 0.0
2017-Jul-03 06:00N 01°07' E 103°36'0 0.0
2017-Jul-03 05:30N 01°07' E 103°36'0 0.0
2017-Jul-03 05:00N 01°07' E 103°36'0 0.1
2017-Jul-03 04:30N 01°07' E 103°36'0 0.0
2017-Jul-03 04:00N 01°07' E 103°36'0 0.1
2017-Jul-03 03:30N 01°07' E 103°36'0 0.0
2017-Jul-03 03:00N 01°07' E 103°36'0 0.1
2017-Jul-03 02:30N 01°07' E 103°36'0 0.1
2017-Jul-03 01:59N 01°07' E 103°36'0 0.1
2017-Jul-03 01:30N 01°07' E 103°36'0 0.1
2017-Jul-03 01:00N 01°07' E 103°36'0 0.0
2017-Jul-03 00:30N 01°07' E 103°36'0 0.0
2017-Jul-03 00:00N 01°07' E 103°36'0 0.0
2017-Jul-02 23:30N 01°07' E 103°36'0 0.1
2017-Jul-02 23:00N 01°07' E 103°36'0 0.1
2017-Jul-02 22:30N 01°07' E 103°36'0 0.1
2017-Jul-02 22:00N 01°07' E 103°36'0 0.1
2017-Jul-02 21:30N 01°07' E 103°36'0 0.0
2017-Jul-02 21:00N 01°07' E 103°36'0 0.0
2017-Jul-02 20:29N 01°07' E 103°36'0 0.1
2017-Jul-02 19:59N 01°07' E 103°36'0 0.0
2017-Jul-02 19:30N 01°07' E 103°36'0 0.0
2017-Jul-02 19:00N 01°07' E 103°36'0 0.0
2017-Jul-02 18:30N 01°07' E 103°36'0 0.1
2017-Jul-02 18:00N 01°07' E 103°36'0 0.1
2017-Jul-02 17:30N 01°07' E 103°36'0 0.0
2017-Jul-02 16:59N 01°07' E 103°36'0 0.0
2017-Jul-02 16:30N 01°07' E 103°36'0 0.0
2017-Jul-02 16:00N 01°07' E 103°36'0 0.0
2017-Jul-02 15:30N 01°07' E 103°36'0 0.0
2017-Jul-02 15:00N 01°07' E 103°36'0 0.1
2017-Jul-02 14:00N 01°07' E 103°36'0 0.2
2017-Jul-02 13:30N 01°07' E 103°36'0 0.2
2017-Jul-02 13:00N 01°07' E 103°36'0 0.1
2017-Jul-02 12:30N 01°07' E 103°36'0 0.0
2017-Jul-02 12:00N 01°07' E 103°36'0 0.0
2017-Jul-02 11:30N 01°07' E 103°36'0 0.0
2017-Jul-02 11:00N 01°07' E 103°36'0 0.0
2017-Jul-02 10:30N 01°07' E 103°36'0 0.0
2017-Jul-02 10:00N 01°07' E 103°36'0 0.1
2017-Jul-02 09:30N 01°07' E 103°36'0 0.1
2017-Jul-02 08:59N 01°07' E 103°36'0 0.2
2017-Jul-02 08:16N 01°07' E 103°36'0 0.0
2017-Jul-02 07:59N 01°07' E 103°36'0 0.0
2017-Jul-02 03:33N 01°07' E 103°36'0 0.0
2017-Jul-02 03:30N 01°07' E 103°36'0 0.0
2017-Jul-02 02:56N 01°07' E 103°36'0 0.0
2017-Jul-02 02:22N 01°07' E 103°36'0 0.0
2017-Jul-02 01:57N 01°07' E 103°36'0 0.0
2017-Jul-02 01:20N 01°07' E 103°36'0 0.1
2017-Jul-02 00:53N 01°07' E 103°36'0 0.0
2017-Jul-02 00:30N 01°07' E 103°36'0 0.1
2017-Jul-01 23:59N 01°07' E 103°36'0 0.1
2017-Jul-01 23:30N 01°07' E 103°36'0 0.8
2017-Jul-01 23:00N 01°07' E 103°36'0 0.8
2017-Jul-01 22:26N 01°07' E 103°37'0 0.0
2017-Jul-01 21:35N 01°07' E 103°37'0 0.0
2017-Jul-01 21:26N 01°07' E 103°37'0 0.0
2017-Jul-01 20:56N 01°07' E 103°37'0 0.0
2017-Jul-01 20:26N 01°07' E 103°37'0 0.1
2017-Jul-01 19:53N 01°07' E 103°37'0 0.0
2017-Jul-01 19:26N 01°07' E 103°37'0 0.0
2017-Jul-01 18:59N 01°07' E 103°37'0 0.0
2017-Jul-01 18:29N 01°07' E 103°37'0 0.0
2017-Jul-01 17:59N 01°07' E 103°37'0 0.0
2017-Jul-01 17:29N 01°07' E 103°37'0 0.1
2017-Jul-01 16:59N 01°07' E 103°37'0 0.0
2017-Jul-01 16:29N 01°07' E 103°37'0 0.0
2017-Jul-01 15:53N 01°07' E 103°37'0 0.2
2017-Jul-01 15:29N 01°07' E 103°37'0 0.0
2017-Jul-01 14:50N 01°07' E 103°37'0 0.1
2017-Jul-01 13:59N 01°07' E 103°37'0 0.0
2017-Jul-01 13:29N 01°07' E 103°37'0 0.0
2017-Jul-01 12:56N 01°07' E 103°37'0 0.1
2017-Jul-01 12:29N 01°07' E 103°37'0 0.2
2017-Jul-01 11:59N 01°07' E 103°37'0 0.1
2017-Jul-01 11:23N 01°07' E 103°37'0 0.2
2017-Jul-01 10:44N 01°07' E 103°37'0 0.0
2017-Jul-01 10:29N 01°07' E 103°37'0 0.0
2017-Jul-01 09:44N 01°07' E 103°37'0 0.2
2017-Jul-01 09:26N 01°07' E 103°37'0 0.1
2017-Jul-01 08:59N 01°07' E 103°37'0 0.0
2017-Jul-01 08:29N 01°07' E 103°37'0 0.0
2017-Jul-01 07:59N 01°07' E 103°37'0 0.1
2017-Jul-01 07:26N 01°07' E 103°37'0 0.1
2017-Jul-01 06:59N 01°07' E 103°37'0 0.0
2017-Jul-01 06:08N 01°07' E 103°37'0 0.0
2017-Jul-01 05:59N 01°07' E 103°37'0 0.0
2017-Jul-01 05:26N 01°07' E 103°37'0 0.0
2017-Jul-01 04:59N 01°07' E 103°37'0 0.0
2017-Jul-01 04:29N 01°07' E 103°37'0 0.0
2017-Jul-01 03:59N 01°07' E 103°37'0 0.0
2017-Jul-01 03:17N 01°07' E 103°37'0 0.0
2017-Jul-01 02:59N 01°07' E 103°37'0 0.0
2017-Jul-01 02:26N 01°07' E 103°37'0 0.0
2017-Jul-01 01:59N 01°07' E 103°37'0 0.0
2017-Jul-01 01:29N 01°07' E 103°37'0 0.0
2017-Jul-01 00:56N 01°07' E 103°37'0 0.0
2017-Jul-01 00:26N 01°07' E 103°37'0 0.0
2017-Jun-30 23:59N 01°07' E 103°37'0 0.0
2017-Jun-30 23:29N 01°07' E 103°37'0 0.0
2017-Jun-30 22:59N 01°07' E 103°37'0 0.0
2017-Jun-30 22:23N 01°07' E 103°37'0 0.2
2017-Jun-30 21:59N 01°07' E 103°37'0 0.0
2017-Jun-30 21:29N 01°07' E 103°37'0 0.0
2017-Jun-30 20:59N 01°07' E 103°37'0 0.0
2017-Jun-30 20:17N 01°07' E 103°37'0 0.0
2017-Jun-30 19:56N 01°07' E 103°37'0 0.1
2017-Jun-30 19:08N 01°07' E 103°37'0 0.0
2017-Jun-30 18:59N 01°07' E 103°37'0 0.0
2017-Jun-30 18:23N 01°07' E 103°37'0 0.1
2017-Jun-30 17:56N 01°07' E 103°37'0 0.0
2017-Jun-30 17:26N 01°07' E 103°37'0 0.1
2017-Jun-30 16:56N 01°07' E 103°37'0 0.1
2017-Jun-30 16:20N 01°07' E 103°37'0 0.0
2017-Jun-30 15:56N 01°07' E 103°37'0 0.0
2017-Jun-30 15:29N 01°07' E 103°37'0 0.0
2017-Jun-30 14:56N 01°07' E 103°37'0 0.0
2017-Jun-30 14:29N 01°07' E 103°37'0 0.0
2017-Jun-30 13:53N 01°07' E 103°37'0 0.0
2017-Jun-30 13:26N 01°07' E 103°37'0 0.0
2017-Jun-30 12:53N 01°07' E 103°37'0 0.3
2017-Jun-30 12:29N 01°07' E 103°37'0 0.3
2017-Jun-30 11:53N 01°07' E 103°37'0 0.0
2017-Jun-30 11:26N 01°07' E 103°37'0 0.0
2017-Jun-30 10:56N 01°07' E 103°37'0 0.0
2017-Jun-30 10:20N 01°07' E 103°37'0 0.0
2017-Jun-30 09:44N 01°07' E 103°37'0 0.0
2017-Jun-30 09:29N 01°07' E 103°37'0 0.0
2017-Jun-30 08:56N 01°07' E 103°37'0 0.1
2017-Jun-30 08:29N 01°07' E 103°37'0 0.1
2017-Jun-30 07:56N 01°07' E 103°37'0 0.1
2017-Jun-30 07:26N 01°07' E 103°37'0 0.2
2017-Jun-30 06:47N 01°07' E 103°37'0 0.1
2017-Jun-30 06:23N 01°07' E 103°37'0 0.1
2017-Jun-30 05:56N 01°07' E 103°37'0 0.0
2017-Jun-30 05:29N 01°07' E 103°37'0 0.0
2017-Jun-30 04:50N 01°07' E 103°37'0 0.0
2017-Jun-30 04:26N 01°07' E 103°37'0 0.0
2017-Jun-30 03:56N 01°07' E 103°37'0 0.3
2017-Jun-30 03:31N 01°07' E 103°37'2 4.2
2017-Jun-30 03:01N 01°09' E 103°37'2 4.6
2017-Jun-30 02:30N 01°10' E 103°39'1 1.1
2017-Jun-30 02:01N 01°11' E 103°39'3 6.7
2017-Jun-30 01:31N 01°09' E 103°42'4 7.3
2017-Jun-30 01:00N 01°09' E 103°46'3 6.8
2017-Jun-30 00:30N 01°11' E 103°49'3 6.6
2017-Jun-30 00:01N 01°12' E 103°52'3 6.3
2017-Jun-29 23:30N 01°14' E 103°54'2 2.1
2017-Jun-29 22:47N 01°15' E 103°55'0 0.0
2017-Jun-29 22:29N 01°15' E 103°55'0 0.0
2017-Jun-29 21:08N 01°15' E 103°55'0 0.1
2017-Jun-29 20:59N 01°15' E 103°55'0 0.0
2017-Jun-29 20:23N 01°15' E 103°55'0 0.0
2017-Jun-29 19:59N 01°15' E 103°55'0 0.0
2017-Jun-29 19:17N 01°15' E 103°55'0 0.2
2017-Jun-29 18:47N 01°15' E 103°55'0 0.1
2017-Jun-29 18:29N 01°15' E 103°55'0 0.1
2017-Jun-29 17:58N 01°15' E 103°55'0 0.2
2017-Jun-29 17:13N 01°15' E 103°55'0 0.0
2017-Jun-29 16:58N 01°15' E 103°55'0 0.1
2017-Jun-29 16:22N 01°15' E 103°55'0 0.0
2017-Jun-29 15:55N 01°15' E 103°55'0 0.0
2017-Jun-29 14:40N 01°15' E 103°55'0 0.1
2017-Jun-29 13:52N 01°15' E 103°55'0 0.2
2017-Jun-29 13:28N 01°15' E 103°55'0 0.0
2017-Jun-29 12:55N 01°15' E 103°55'0 0.1
2017-Jun-29 12:10N 01°15' E 103°55'0 0.0
2017-Jun-29 11:58N 01°15' E 103°55'0 0.0
2017-Jun-29 11:28N 01°15' E 103°55'0 0.0
2017-Jun-29 10:58N 01°15' E 103°55'0 0.1
2017-Jun-29 10:13N 01°15' E 103°55'0 0.1
2017-Jun-29 09:49N 01°15' E 103°55'0 0.0
2017-Jun-29 09:16N 01°15' E 103°55'0 0.0
2017-Jun-29 08:13N 01°15' E 103°55'0 0.0
2017-Jun-29 07:49N 01°15' E 103°55'0 0.0
2017-Jun-29 07:25N 01°15' E 103°55'0 0.0
2017-Jun-29 06:49N 01°15' E 103°55'0 0.0
2017-Jun-29 05:49N 01°15' E 103°55'0 0.0
2017-Jun-29 05:19N 01°15' E 103°55'0 0.0
2017-Jun-29 04:55N 01°15' E 103°55'0 0.0
2017-Jun-29 04:28N 01°15' E 103°55'0 0.0
2017-Jun-29 02:25N 01°15' E 103°55'0 0.1
2017-Jun-29 02:00N 01°15' E 103°55'1 2.6
2017-Jun-29 01:30N 01°16' E 103°56'3 6.2
2017-Jun-29 01:00N 01°16' E 103°59'1 2.6
2017-Jun-29 00:30N 01°16' E 104°00'2 3.2
2017-Jun-28 23:56N 01°16' E 104°02'2 4.9
2017-Jun-28 23:30N 01°16' E 104°04'  
Track history (hours):
 
Tides and Currents Weather Stations Pressure Air Temp Water Temp Dewpoint Dewpoint Depression Visibility Wind Speed Wind Dir Waves Ship Positions

Shanghai Dawn

Last reported at 2017-Jul-03 15:06 UTC. Time now 2017-Aug-18 20:26 UTC.
Position N 01°15' E 104°07'.
Warning: this ship's position is 46 days out of date.

Length 246 m; draft 13.2 m.

Type: Tanker. MMSI: 356075000.

Date/timePositionNaut miles runAvg speedWind from/ knotsBaromVisibWave heightAir tempDewpointWater temp
2017-Jul-03 15:06N 01°15' E 104°07'212.3
2017-Jul-03 14:58N 01°15' E 104°06'1111.9
2017-Jul-03 14:00N 01°12' E 103°55'510.4
2017-Jul-03 13:30N 01°10' E 103°50'5 9.4
2017-Jul-03 13:00N 01°08' E 103°46'5 9.1
2017-Jul-03 12:30N 01°05' E 103°43'4 8.8
2017-Jul-03 12:00N 01°03' E 103°39'4 8.1
2017-Jul-03 11:30N 01°06' E 103°37'1 2.6
2017-Jul-03 11:00N 01°07' E 103°36'0 0.9
2017-Jul-03 10:30N 01°07' E 103°36'0 0.0
2017-Jul-03 09:58N 01°07' E 103°36'0 0.2
2017-Jul-03 09:30N 01°07' E 103°36'0 0.1
2017-Jul-03 09:00N 01°07' E 103°36'0 0.1
2017-Jul-03 08:30N 01°07' E 103°36'0 0.0
2017-Jul-03 07:59N 01°07' E 103°36'0 0.0
2017-Jul-03 07:19N 01°07' E 103°36'0 0.0
2017-Jul-03 06:54N 01°07' E 103°36'0 0.0
2017-Jul-03 06:30N 01°07' E 103°36'0 0.0
2017-Jul-03 06:00N 01°07' E 103°36'0 0.0
2017-Jul-03 05:30N 01°07' E 103°36'0 0.0
2017-Jul-03 05:00N 01°07' E 103°36'0 0.1
2017-Jul-03 04:30N 01°07' E 103°36'0 0.0
2017-Jul-03 04:00N 01°07' E 103°36'0 0.1
2017-Jul-03 03:30N 01°07' E 103°36'0 0.0
2017-Jul-03 03:00N 01°07' E 103°36'0 0.1
2017-Jul-03 02:30N 01°07' E 103°36'0 0.1
2017-Jul-03 01:59N 01°07' E 103°36'0 0.1
2017-Jul-03 01:30N 01°07' E 103°36'0 0.1
2017-Jul-03 01:00N 01°07' E 103°36'0 0.0
2017-Jul-03 00:30N 01°07' E 103°36'0 0.0
2017-Jul-03 00:00N 01°07' E 103°36'0 0.0
2017-Jul-02 23:30N 01°07' E 103°36'0 0.1
2017-Jul-02 23:00N 01°07' E 103°36'0 0.1
2017-Jul-02 22:30N 01°07' E 103°36'0 0.1
2017-Jul-02 22:00N 01°07' E 103°36'0 0.1
2017-Jul-02 21:30N 01°07' E 103°36'0 0.0
2017-Jul-02 21:00N 01°07' E 103°36'0 0.0
2017-Jul-02 20:29N 01°07' E 103°36'0 0.1
2017-Jul-02 19:59N 01°07' E 103°36'0 0.0
2017-Jul-02 19:30N 01°07' E 103°36'0 0.0
2017-Jul-02 19:00N 01°07' E 103°36'0 0.0
2017-Jul-02 18:30N 01°07' E 103°36'0 0.1
2017-Jul-02 18:00N 01°07' E 103°36'0 0.1
2017-Jul-02 17:30N 01°07' E 103°36'0 0.0
2017-Jul-02 16:59N 01°07' E 103°36'0 0.0
2017-Jul-02 16:30N 01°07' E 103°36'0 0.0
2017-Jul-02 16:00N 01°07' E 103°36'0 0.0
2017-Jul-02 15:30N 01°07' E 103°36'0 0.0
2017-Jul-02 15:00N 01°07' E 103°36'0 0.1
2017-Jul-02 14:00N 01°07' E 103°36'0 0.2
2017-Jul-02 13:30N 01°07' E 103°36'0 0.2
2017-Jul-02 13:00N 01°07' E 103°36'0 0.1
2017-Jul-02 12:30N 01°07' E 103°36'0 0.0
2017-Jul-02 12:00N 01°07' E 103°36'0 0.0
2017-Jul-02 11:30N 01°07' E 103°36'0 0.0
2017-Jul-02 11:00N 01°07' E 103°36'0 0.0
2017-Jul-02 10:30N 01°07' E 103°36'0 0.0
2017-Jul-02 10:00N 01°07' E 103°36'0 0.1
2017-Jul-02 09:30N 01°07' E 103°36'0 0.1
2017-Jul-02 08:59N 01°07' E 103°36'0 0.2
2017-Jul-02 08:16N 01°07' E 103°36'0 0.0
2017-Jul-02 07:59N 01°07' E 103°36'0 0.0
2017-Jul-02 03:33N 01°07' E 103°36'0 0.0
2017-Jul-02 03:30N 01°07' E 103°36'0 0.0
2017-Jul-02 02:56N 01°07' E 103°36'0 0.0
2017-Jul-02 02:22N 01°07' E 103°36'0 0.0
2017-Jul-02 01:57N 01°07' E 103°36'0 0.0
2017-Jul-02 01:20N 01°07' E 103°36'0 0.1
2017-Jul-02 00:53N 01°07' E 103°36'0 0.0
2017-Jul-02 00:30N 01°07' E 103°36'0 0.1
2017-Jul-01 23:59N 01°07' E 103°36'0 0.1
2017-Jul-01 23:30N 01°07' E 103°36'0 0.8
2017-Jul-01 23:00N 01°07' E 103°36'0 0.8
2017-Jul-01 22:26N 01°07' E 103°37'0 0.0
2017-Jul-01 21:35N 01°07' E 103°37'0 0.0
2017-Jul-01 21:26N 01°07' E 103°37'0 0.0
2017-Jul-01 20:56N 01°07' E 103°37'0 0.0
2017-Jul-01 20:26N 01°07' E 103°37'0 0.1
2017-Jul-01 19:53N 01°07' E 103°37'0 0.0
2017-Jul-01 19:26N 01°07' E 103°37'0 0.0
2017-Jul-01 18:59N 01°07' E 103°37'0 0.0
2017-Jul-01 18:29N 01°07' E 103°37'0 0.0
2017-Jul-01 17:59N 01°07' E 103°37'0 0.0
2017-Jul-01 17:29N 01°07' E 103°37'0 0.1
2017-Jul-01 16:59N 01°07' E 103°37'0 0.0
2017-Jul-01 16:29N 01°07' E 103°37'0 0.0
2017-Jul-01 15:53N 01°07' E 103°37'0 0.2
2017-Jul-01 15:29N 01°07' E 103°37'0 0.0
2017-Jul-01 14:50N 01°07' E 103°37'0 0.1
2017-Jul-01 13:59N 01°07' E 103°37'0 0.0
2017-Jul-01 13:29N 01°07' E 103°37'0 0.0
2017-Jul-01 12:56N 01°07' E 103°37'0 0.1
2017-Jul-01 12:29N 01°07' E 103°37'0 0.2
2017-Jul-01 11:59N 01°07' E 103°37'0 0.1
2017-Jul-01 11:23N 01°07' E 103°37'0 0.2
2017-Jul-01 10:44N 01°07' E 103°37'0 0.0
2017-Jul-01 10:29N 01°07' E 103°37'0 0.0
2017-Jul-01 09:44N 01°07' E 103°37'0 0.2
2017-Jul-01 09:26N 01°07' E 103°37'0 0.1
2017-Jul-01 08:59N 01°07' E 103°37'0 0.0
2017-Jul-01 08:29N 01°07' E 103°37'0 0.0
2017-Jul-01 07:59N 01°07' E 103°37'0 0.1
2017-Jul-01 07:26N 01°07' E 103°37'0 0.1
2017-Jul-01 06:59N 01°07' E 103°37'0 0.0
2017-Jul-01 06:08N 01°07' E 103°37'0 0.0
2017-Jul-01 05:59N 01°07' E 103°37'0 0.0
2017-Jul-01 05:26N 01°07' E 103°37'0 0.0
2017-Jul-01 04:59N 01°07' E 103°37'0 0.0
2017-Jul-01 04:29N 01°07' E 103°37'0 0.0
2017-Jul-01 03:59N 01°07' E 103°37'0 0.0
2017-Jul-01 03:17N 01°07' E 103°37'0 0.0
2017-Jul-01 02:59N 01°07' E 103°37'0 0.0
2017-Jul-01 02:26N 01°07' E 103°37'0 0.0
2017-Jul-01 01:59N 01°07' E 103°37'0 0.0
2017-Jul-01 01:29N 01°07' E 103°37'0 0.0
2017-Jul-01 00:56N 01°07' E 103°37'0 0.0
2017-Jul-01 00:26N 01°07' E 103°37'0 0.0
2017-Jun-30 23:59N 01°07' E 103°37'0 0.0
2017-Jun-30 23:29N 01°07' E 103°37'0 0.0
2017-Jun-30 22:59N 01°07' E 103°37'0 0.0
2017-Jun-30 22:23N 01°07' E 103°37'0 0.2
2017-Jun-30 21:59N 01°07' E 103°37'0 0.0
2017-Jun-30 21:29N 01°07' E 103°37'0 0.0
2017-Jun-30 20:59N 01°07' E 103°37'0 0.0
2017-Jun-30 20:17N 01°07' E 103°37'0 0.0
2017-Jun-30 19:56N 01°07' E 103°37'0 0.1
2017-Jun-30 19:08N 01°07' E 103°37'0 0.0
2017-Jun-30 18:59N 01°07' E 103°37'0 0.0
2017-Jun-30 18:23N 01°07' E 103°37'0 0.1
2017-Jun-30 17:56N 01°07' E 103°37'0 0.0
2017-Jun-30 17:26N 01°07' E 103°37'0 0.1
2017-Jun-30 16:56N 01°07' E 103°37'0 0.1
2017-Jun-30 16:20N 01°07' E 103°37'0 0.0
2017-Jun-30 15:56N 01°07' E 103°37'0 0.0
2017-Jun-30 15:29N 01°07' E 103°37'0 0.0
2017-Jun-30 14:56N 01°07' E 103°37'0 0.0
2017-Jun-30 14:29N 01°07' E 103°37'0 0.0
2017-Jun-30 13:53N 01°07' E 103°37'0 0.0
2017-Jun-30 13:26N 01°07' E 103°37'0 0.0
2017-Jun-30 12:53N 01°07' E 103°37'0 0.3
2017-Jun-30 12:29N 01°07' E 103°37'0 0.3
2017-Jun-30 11:53N 01°07' E 103°37'0 0.0
2017-Jun-30 11:26N 01°07' E 103°37'0 0.0
2017-Jun-30 10:56N 01°07' E 103°37'0 0.0
2017-Jun-30 10:20N 01°07' E 103°37'0 0.0
2017-Jun-30 09:44N 01°07' E 103°37'0 0.0
2017-Jun-30 09:29N 01°07' E 103°37'0 0.0
2017-Jun-30 08:56N 01°07' E 103°37'0 0.1
2017-Jun-30 08:29N 01°07' E 103°37'0 0.1
2017-Jun-30 07:56N 01°07' E 103°37'0 0.1
2017-Jun-30 07:26N 01°07' E 103°37'0 0.2
2017-Jun-30 06:47N 01°07' E 103°37'0 0.1
2017-Jun-30 06:23N 01°07' E 103°37'0 0.1
2017-Jun-30 05:56N 01°07' E 103°37'0 0.0
2017-Jun-30 05:29N 01°07' E 103°37'0 0.0
2017-Jun-30 04:50N 01°07' E 103°37'0 0.0
2017-Jun-30 04:26N 01°07' E 103°37'0 0.0
2017-Jun-30 03:56N 01°07' E 103°37'0 0.3
2017-Jun-30 03:31N 01°07' E 103°37'2 4.2
2017-Jun-30 03:01N 01°09' E 103°37'2 4.6
2017-Jun-30 02:30N 01°10' E 103°39'1 1.1
2017-Jun-30 02:01N 01°11' E 103°39'3 6.7
2017-Jun-30 01:31N 01°09' E 103°42'4 7.3
2017-Jun-30 01:00N 01°09' E 103°46'3 6.8
2017-Jun-30 00:30N 01°11' E 103°49'3 6.6
2017-Jun-30 00:01N 01°12' E 103°52'3 6.3
2017-Jun-29 23:30N 01°14' E 103°54'2 2.1
2017-Jun-29 22:47N 01°15' E 103°55'0 0.0
2017-Jun-29 22:29N 01°15' E 103°55'0 0.0
2017-Jun-29 21:08N 01°15' E 103°55'0 0.1
2017-Jun-29 20:59N 01°15' E 103°55'0 0.0
2017-Jun-29 20:23N 01°15' E 103°55'0 0.0
2017-Jun-29 19:59N 01°15' E 103°55'0 0.0
2017-Jun-29 19:17N 01°15' E 103°55'0 0.2
2017-Jun-29 18:47N 01°15' E 103°55'0 0.1
2017-Jun-29 18:29N 01°15' E 103°55'0 0.1
2017-Jun-29 17:58N 01°15' E 103°55'0 0.2
2017-Jun-29 17:13N 01°15' E 103°55'0 0.0
2017-Jun-29 16:58N 01°15' E 103°55'0 0.1
2017-Jun-29 16:22N 01°15' E 103°55'0 0.0
2017-Jun-29 15:55N 01°15' E 103°55'0 0.0
2017-Jun-29 14:40N 01°15' E 103°55'0 0.1
2017-Jun-29 13:52N 01°15' E 103°55'0 0.2
2017-Jun-29 13:28N 01°15' E 103°55'0 0.0
2017-Jun-29 12:55N 01°15' E 103°55'0 0.1
2017-Jun-29 12:10N 01°15' E 103°55'0 0.0
2017-Jun-29 11:58N 01°15' E 103°55'0 0.0
2017-Jun-29 11:28N 01°15' E 103°55'0 0.0
2017-Jun-29 10:58N 01°15' E 103°55'0 0.1
2017-Jun-29 10:13N 01°15' E 103°55'0 0.1
2017-Jun-29 09:49N 01°15' E 103°55'0 0.0
2017-Jun-29 09:16N 01°15' E 103°55'0 0.0
2017-Jun-29 08:13N 01°15' E 103°55'0 0.0
2017-Jun-29 07:49N 01°15' E 103°55'0 0.0
2017-Jun-29 07:25N 01°15' E 103°55'0 0.0
2017-Jun-29 06:49N 01°15' E 103°55'0 0.0
2017-Jun-29 05:49N 01°15' E 103°55'0 0.0
2017-Jun-29 05:19N 01°15' E 103°55'0 0.0
2017-Jun-29 04:55N 01°15' E 103°55'0 0.0
2017-Jun-29 04:28N 01°15' E 103°55'0 0.0
2017-Jun-29 02:25N 01°15' E 103°55'0 0.1
2017-Jun-29 02:00N 01°15' E 103°55'1 2.6
2017-Jun-29 01:30N 01°16' E 103°56'3 6.2
2017-Jun-29 01:00N 01°16' E 103°59'1 2.6
2017-Jun-29 00:30N 01°16' E 104°00'2 3.2
2017-Jun-28 23:56N 01°16' E 104°02'2 4.9
2017-Jun-28 23:30N 01°16' E 104°04'  

Dump ship's entire track history